Time;durP1;ratioP1;P1;durP2;ratioP2;P2;SDS_P1;SDS_P2;PMS_P1;PMS_P2;Temp;Humidity;BMP_temperature;BMP_pressure;BME280_temperature;BME280_humidity;BME280_pressure;Samples;Min_cycle;Max_cycle;Signal;HPM_P1;HPM_P2
2023/12/26 00:01:15;;;;;;;2.38;1.10;;;9.40;99.90;;;;;;5013119;28;20448;-54
2023/12/26 00:03:48;;;;;;;2.83;1.42;;;9.40;99.90;;;;;;5009788;28;20062;-53
2023/12/26 00:06:21;;;;;;;2.35;1.20;;;9.50;99.90;;;;;;5008256;28;20046;-50
2023/12/26 00:08:59;;;;;;;2.95;1.30;;;9.50;99.90;;;;;;5010301;28;20042;-50
2023/12/26 00:11:30;;;;;;;1.60;1.00;;;9.40;99.90;;;;;;5012643;28;20045;-53
2023/12/26 00:14:04;;;;;;;2.33;1.10;;;9.40;99.90;;;;;;5039607;28;20046;-54
2023/12/26 00:16:39;;;;;;;2.42;1.10;;;9.40;99.90;;;;;;5014123;28;20053;-52
2023/12/26 00:19:10;;;;;;;2.88;1.20;;;9.40;99.90;;;;;;5010158;28;20065;-51
2023/12/26 00:21:46;;;;;;;2.15;1.00;;;9.40;99.90;;;;;;5006773;28;20419;-53
2023/12/26 00:24:16;;;;;;;2.05;1.17;;;9.40;99.90;;;;;;5014827;28;20049;-51
2023/12/26 00:26:49;;;;;;;1.85;1.20;;;9.40;99.90;;;;;;5014652;28;20050;-50
2023/12/26 00:29:17;;;;;;;3.53;1.33;;;9.30;99.90;;;;;;5014196;28;20041;-50
2023/12/26 00:31:48;;;;;;;3.25;1.20;;;9.20;99.90;;;;;;5016907;28;20136;-53
2023/12/26 00:34:16;;;;;;;2.35;1.25;;;9.20;99.90;;;;;;5011221;28;20042;-51
2023/12/26 00:36:47;;;;;;;2.40;1.17;;;9.20;99.90;;;;;;5010612;28;20499;-53
2023/12/26 00:39:15;;;;;;;2.45;1.20;;;9.20;99.90;;;;;;5010852;28;20542;-52
2023/12/26 00:41:48;;;;;;;4.13;1.55;;;9.20;99.90;;;;;;4964500;28;20142;-53
2023/12/26 00:44:15;;;;;;;3.15;1.40;;;9.10;99.90;;;;;;5012510;28;20056;-52
2023/12/26 00:46:46;;;;;;;3.20;1.30;;;9.20;99.90;;;;;;5015881;28;20060;-52
2023/12/26 00:49:18;;;;;;;2.15;1.35;;;9.20;99.90;;;;;;4997033;28;20202;-52
2023/12/26 00:51:46;;;;;;;4.72;1.65;;;9.10;99.90;;;;;;5037153;28;20430;-50
2023/12/26 00:54:14;;;;;;;5.00;1.40;;;9.10;99.90;;;;;;5014818;28;20045;-54
2023/12/26 00:56:43;;;;;;;2.45;1.20;;;9.00;99.90;;;;;;5010792;28;20041;-55
2023/12/26 00:59:13;;;;;;;3.30;1.15;;;9.00;99.90;;;;;;5008536;28;20537;-51
2023/12/26 01:01:42;;;;;;;1.90;1.20;;;9.00;99.90;;;;;;5011969;28;20050;-51
2023/12/26 01:04:11;;;;;;;2.50;1.38;;;8.90;99.90;;;;;;5011212;28;20052;-52
2023/12/26 01:06:45;;;;;;;3.58;1.38;;;9.00;99.90;;;;;;5012475;28;20057;-51
2023/12/26 01:09:15;;;;;;;2.60;1.40;;;9.00;99.90;;;;;;5021318;28;20494;-51
2023/12/26 01:11:42;;;;;;;1.98;1.33;;;9.10;99.90;;;;;;5014928;28;20564;-53
2023/12/26 01:14:13;;;;;;;2.15;1.15;;;9.10;99.90;;;;;;5023595;28;20445;-54
2023/12/26 01:16:45;;;;;;;3.03;1.30;;;9.20;99.90;;;;;;5012683;28;20519;-52
2023/12/26 01:19:16;;;;;;;6.43;2.70;;;9.10;99.90;;;;;;5013242;28;20050;-55
2023/12/26 01:21:47;;;;;;;3.67;1.88;;;9.10;99.90;;;;;;5005983;28;20052;-50
2023/12/26 01:24:18;;;;;;;3.63;1.77;;;9.10;99.90;;;;;;5013204;28;20054;-50
2023/12/26 01:26:48;;;;;;;2.60;1.40;;;9.20;99.90;;;;;;5012706;28;20510;-52
2023/12/26 01:29:23;;;;;;;2.15;1.15;;;9.10;99.90;;;;;;5011792;28;20137;-52
2023/12/26 01:31:55;;;;;;;2.38;1.45;;;9.10;99.90;;;;;;4997773;28;20476;-51
2023/12/26 01:34:24;;;;;;;3.60;1.35;;;9.10;99.90;;;;;;5008595;28;20046;-54
2023/12/26 01:36:54;;;;;;;2.40;1.27;;;9.20;99.90;;;;;;5012787;28;20042;-53
2023/12/26 01:39:22;;;;;;;3.90;1.20;;;9.20;99.90;;;;;;5006915;28;20347;-56
2023/12/26 01:41:50;;;;;;;2.55;1.35;;;9.20;99.90;;;;;;5016741;28;20053;-53
2023/12/26 01:44:21;;;;;;;3.03;1.33;;;9.20;99.90;;;;;;4992328;28;20046;-53
2023/12/26 01:46:49;;;;;;;2.60;1.30;;;9.20;99.90;;;;;;5008183;28;20103;-48
2023/12/26 01:49:20;;;;;;;4.40;1.33;;;9.30;99.90;;;;;;5010288;28;20080;-49
2023/12/26 01:51:51;;;;;;;4.32;1.50;;;9.20;99.90;;;;;;5007288;28;20072;-53
2023/12/26 01:54:24;;;;;;;2.22;1.23;;;9.20;99.90;;;;;;5012358;28;20541;-48
2023/12/26 01:56:53;;;;;;;2.40;1.20;;;9.20;99.90;;;;;;4991419;28;20049;-50
2023/12/26 01:59:23;;;;;;;4.22;1.20;;;9.20;99.90;;;;;;4991756;28;20041;-48
2023/12/26 02:01:53;;;;;;;2.58;1.20;;;9.20;99.90;;;;;;5011306;28;20045;-53
2023/12/26 02:04:21;;;;;;;3.03;1.15;;;9.20;99.90;;;;;;5009027;28;20050;-49
2023/12/26 02:06:51;;;;;;;2.67;1.23;;;9.20;99.90;;;;;;5011959;28;20250;-52
2023/12/26 02:09:19;;;;;;;2.33;0.93;;;9.10;99.90;;;;;;5024963;28;20538;-51
2023/12/26 02:11:51;;;;;;;2.67;1.10;;;9.10;99.90;;;;;;4994508;28;20053;-51
2023/12/26 02:14:19;;;;;;;2.67;1.30;;;9.20;99.90;;;;;;5014794;28;20050;-53
2023/12/26 02:16:49;;;;;;;1.90;1.10;;;9.10;99.90;;;;;;5009658;28;20076;-52
2023/12/26 02:19:18;;;;;;;3.40;1.20;;;9.10;99.90;;;;;;5013267;28;20111;-51
2023/12/26 02:21:48;;;;;;;2.50;1.20;;;9.10;99.90;;;;;;5012504;28;20129;-50
2023/12/26 02:24:17;;;;;;;2.15;1.00;;;9.20;99.90;;;;;;5013690;28;20307;-56
2023/12/26 02:26:46;;;;;;;1.60;1.00;;;9.10;99.90;;;;;;5035163;28;20546;-53
2023/12/26 02:29:14;;;;;;;2.33;1.10;;;9.10;99.90;;;;;;5012952;28;20042;-49
2023/12/26 02:31:43;;;;;;;3.28;1.30;;;9.10;99.90;;;;;;5035436;28;20699;-52
2023/12/26 02:34:10;;;;;;;2.60;1.20;;;9.10;99.90;;;;;;5010944;28;20123;-49
2023/12/26 02:36:38;;;;;;;2.15;1.20;;;9.10;99.90;;;;;;5011578;28;20597;-52
2023/12/26 02:39:08;;;;;;;1.98;1.17;;;9.00;99.90;;;;;;5007771;28;20469;-51
2023/12/26 02:41:36;;;;;;;3.03;1.00;;;9.10;99.90;;;;;;4995536;28;20530;-55
2023/12/26 02:44:03;;;;;;;2.83;1.20;;;9.00;99.90;;;;;;5007499;28;20430;-53
2023/12/26 02:46:30;;;;;;;3.22;1.17;;;9.00;99.90;;;;;;5007189;28;20483;-55
2023/12/26 02:48:57;;;;;;;3.13;1.15;;;9.00;99.90;;;;;;5015493;28;20092;-54
2023/12/26 02:51:24;;;;;;;1.98;1.15;;;8.90;99.90;;;;;;5016978;28;20180;-49
2023/12/26 02:53:51;;;;;;;2.80;1.08;;;9.00;99.90;;;;;;5017916;28;20091;-51
2023/12/26 02:56:18;;;;;;;2.05;1.10;;;9.00;99.90;;;;;;5014207;28;20422;-57
2023/12/26 02:58:45;;;;;;;2.25;1.00;;;9.00;99.90;;;;;;5013219;28;20045;-53
2023/12/26 03:01:12;;;;;;;1.95;1.02;;;9.00;99.90;;;;;;5015516;28;20422;-49
2023/12/26 03:03:39;;;;;;;2.35;1.25;;;9.00;99.90;;;;;;5016228;28;20038;-49
2023/12/26 03:06:07;;;;;;;3.90;1.25;;;8.90;99.90;;;;;;5012085;28;20052;-52
2023/12/26 03:08:34;;;;;;;2.45;1.55;;;8.90;99.90;;;;;;5012175;28;20069;-53
2023/12/26 03:11:01;;;;;;;2.28;1.10;;;8.90;99.90;;;;;;5016123;28;20111;-56
2023/12/26 03:13:28;;;;;;;3.13;1.30;;;8.90;99.90;;;;;;5017057;28;20068;-53
2023/12/26 03:15:55;;;;;;;5.85;1.88;;;8.80;99.90;;;;;;5016445;28;20052;-54
2023/12/26 03:18:22;;;;;;;3.55;1.08;;;8.80;99.90;;;;;;5013635;28;20046;-49
2023/12/26 03:20:49;;;;;;;2.00;1.20;;;8.80;99.90;;;;;;5018001;28;20337;-54
2023/12/26 03:23:16;;;;;;;3.20;1.00;;;8.90;99.90;;;;;;5015973;28;20037;-51
2023/12/26 03:25:43;;;;;;;2.03;1.08;;;8.80;99.90;;;;;;5017592;28;20568;-56
2023/12/26 03:28:10;;;;;;;3.28;1.20;;;8.80;99.90;;;;;;5013504;28;20457;-55
2023/12/26 03:30:38;;;;;;;1.63;1.00;;;8.80;99.90;;;;;;5017470;28;20144;-52
2023/12/26 03:33:06;;;;;;;2.13;1.30;;;8.80;99.90;;;;;;5016806;28;20108;-52
2023/12/26 03:35:34;;;;;;;4.05;1.83;;;8.70;99.90;;;;;;5016180;28;20092;-53
2023/12/26 03:38:01;;;;;;;2.30;1.20;;;8.70;99.90;;;;;;5014863;28;20096;-53
2023/12/26 03:40:28;;;;;;;2.63;1.13;;;8.70;99.90;;;;;;5017829;28;20045;-51
2023/12/26 03:42:56;;;;;;;2.72;1.00;;;8.70;99.90;;;;;;5010643;28;20065;-51
2023/12/26 03:45:26;;;;;;;1.08;0.95;;;8.70;99.90;;;;;;5014514;28;20062;-53
2023/12/26 03:47:53;;;;;;;3.03;1.20;;;8.70;99.90;;;;;;5013987;28;20507;-55
2023/12/26 03:50:21;;;;;;;3.47;1.20;;;8.70;99.90;;;;;;5010018;28;20057;-54
2023/12/26 03:52:48;;;;;;;1.92;1.10;;;8.70;99.90;;;;;;5012169;28;20086;-56
2023/12/26 03:55:15;;;;;;;2.85;1.40;;;8.60;99.90;;;;;;5015638;28;20141;-50
2023/12/26 03:57:42;;;;;;;1.45;1.10;;;8.70;99.90;;;;;;5013761;28;20063;-54
2023/12/26 04:00:10;;;;;;;2.22;1.25;;;8.60;99.90;;;;;;5012766;28;20121;-52
2023/12/26 04:02:42;;;;;;;5.75;1.77;;;8.50;99.90;;;;;;5041436;28;20465;-48
2023/12/26 04:05:13;;;;;;;3.10;1.30;;;8.60;99.90;;;;;;5012224;28;20133;-57
2023/12/26 04:07:40;;;;;;;3.78;1.52;;;8.50;99.90;;;;;;5016098;28;20088;-55
2023/12/26 04:10:08;;;;;;;5.05;1.30;;;8.50;99.90;;;;;;5012762;28;20069;-53
2023/12/26 04:12:36;;;;;;;3.83;1.58;;;8.60;99.90;;;;;;5040492;28;20376;-54
2023/12/26 04:15:04;;;;;;;4.10;1.58;;;8.60;99.90;;;;;;5009868;28;20357;-56
2023/12/26 04:17:30;;;;;;;4.45;1.90;;;8.60;99.90;;;;;;5012997;28;20173;-48
2023/12/26 04:19:57;;;;;;;4.07;1.50;;;8.50;99.90;;;;;;5017459;28;20129;-53
2023/12/26 04:22:24;;;;;;;3.42;1.52;;;8.50;99.90;;;;;;5013153;28;20052;-52
2023/12/26 04:24:51;;;;;;;7.65;1.65;;;8.50;99.90;;;;;;5014218;28;20068;-53
2023/12/26 04:27:18;;;;;;;5.30;2.15;;;8.60;99.90;;;;;;5011389;28;20038;-50
2023/12/26 04:29:45;;;;;;;6.85;2.20;;;8.60;99.90;;;;;;5009543;28;20049;-56
2023/12/26 04:32:12;;;;;;;6.78;2.00;;;8.60;99.90;;;;;;5012869;28;20042;-53
2023/12/26 04:34:40;;;;;;;4.88;2.08;;;8.60;99.90;;;;;;5012913;28;20116;-50
2023/12/26 04:37:07;;;;;;;6.05;1.80;;;8.60;99.90;;;;;;5016302;28;20108;-50
2023/12/26 04:39:34;;;;;;;6.10;2.17;;;8.60;99.90;;;;;;5013746;28;20044;-49
2023/12/26 04:42:01;;;;;;;9.40;2.45;;;8.60;99.90;;;;;;5034237;28;20141;-52
2023/12/26 04:44:28;;;;;;;9.23;2.78;;;8.60;99.90;;;;;;5009974;28;20451;-52
2023/12/26 04:46:55;;;;;;;6.53;2.13;;;8.70;99.90;;;;;;5010839;28;20128;-56
2023/12/26 04:49:22;;;;;;;5.93;2.30;;;8.70;99.90;;;;;;5012173;28;20583;-50
2023/12/26 04:51:49;;;;;;;10.07;2.45;;;8.70;99.90;;;;;;5012299;28;20247;-47
2023/12/26 04:54:17;;;;;;;9.90;2.25;;;8.70;99.90;;;;;;5010251;28;20645;-48
2023/12/26 04:56:44;;;;;;;7.18;2.28;;;8.70;99.90;;;;;;5013507;28;20045;-57
2023/12/26 04:59:12;;;;;;;8.43;2.65;;;8.70;99.90;;;;;;5007921;28;20041;-53
2023/12/26 05:01:42;;;;;;;7.10;2.28;;;8.70;99.90;;;;;;5013782;28;20037;-52
2023/12/26 05:04:12;;;;;;;6.20;2.20;;;8.70;99.90;;;;;;5010901;28;20392;-48
2023/12/26 05:06:39;;;;;;;9.80;1.75;;;8.70;99.90;;;;;;5013543;28;20060;-47
2023/12/26 05:09:07;;;;;;;5.68;1.88;;;8.70;99.90;;;;;;5013440;28;20452;-52
2023/12/26 05:11:34;;;;;;;5.50;2.10;;;8.70;99.90;;;;;;5012700;28;20108;-54
2023/12/26 05:14:01;;;;;;;9.85;2.38;;;8.80;99.90;;;;;;5012930;28;20442;-57
2023/12/26 05:16:28;;;;;;;6.75;2.25;;;8.80;99.90;;;;;;5013334;28;20050;-49
2023/12/26 05:18:55;;;;;;;8.82;2.20;;;8.80;99.90;;;;;;5012054;28;20400;-50
2023/12/26 05:21:23;;;;;;;6.40;2.30;;;8.70;99.90;;;;;;5006372;28;20471;-46
2023/12/26 05:23:51;;;;;;;4.95;1.92;;;8.70;99.90;;;;;;5013275;28;20045;-52
2023/12/26 05:26:18;;;;;;;6.43;1.92;;;8.70;99.90;;;;;;5009529;28;20289;-50
2023/12/26 05:28:47;;;;;;;8.88;2.30;;;8.70;99.90;;;;;;5010970;28;20191;-52
2023/12/26 05:31:19;;;;;;;4.32;1.92;;;8.60;99.90;;;;;;5011882;28;20052;-52
2023/12/26 05:33:46;;;;;;;7.95;2.25;;;8.60;99.90;;;;;;5009000;28;20648;-51
2023/12/26 05:36:13;;;;;;;6.32;1.90;;;8.60;99.90;;;;;;5006593;28;20121;-51
2023/12/26 05:38:40;;;;;;;8.02;2.20;;;8.60;99.90;;;;;;5011458;28;20089;-55
2023/12/26 05:41:07;;;;;;;9.00;2.30;;;8.60;99.90;;;;;;5013548;28;20037;-54
2023/12/26 05:43:35;;;;;;;4.03;2.00;;;8.60;99.90;;;;;;5010390;28;20508;-49
2023/12/26 05:46:02;;;;;;;8.05;2.28;;;8.60;99.90;;;;;;5011434;28;20041;-49
2023/12/26 05:48:29;;;;;;;7.38;1.90;;;8.50;99.90;;;;;;5012022;28;20042;-45
2023/12/26 05:50:57;;;;;;;7.28;2.05;;;8.50;99.90;;;;;;5011473;28;20056;-53
2023/12/26 05:53:29;;;;;;;5.80;2.05;;;8.50;99.90;;;;;;5012231;28;20088;-51
2023/12/26 05:55:57;;;;;;;4.88;1.90;;;8.50;99.90;;;;;;5009331;28;20190;-52
2023/12/26 05:58:25;;;;;;;5.55;2.33;;;8.50;99.90;;;;;;5014837;28;20046;-47
2023/12/26 06:00:52;;;;;;;5.03;1.90;;;8.60;99.90;;;;;;5012130;28;20484;-49
2023/12/26 06:03:19;;;;;;;7.47;2.03;;;8.50;99.90;;;;;;5010411;28;20038;-50
2023/12/26 06:05:47;;;;;;;7.18;2.20;;;8.60;99.90;;;;;;5006843;28;20049;-52
2023/12/26 06:08:15;;;;;;;6.88;2.10;;;8.60;99.90;;;;;;5011549;28;20074;-56
2023/12/26 06:10:42;;;;;;;7.60;2.03;;;8.60;99.90;;;;;;5010597;28;20057;-53
2023/12/26 06:13:10;;;;;;;6.82;2.35;;;8.60;99.90;;;;;;5005940;28;20503;-57
2023/12/26 06:15:37;;;;;;;7.50;2.28;;;8.60;99.90;;;;;;5008491;28;20053;-50
2023/12/26 06:18:04;;;;;;;6.80;2.47;;;8.60;99.90;;;;;;5008130;28;20041;-48
2023/12/26 06:20:31;;;;;;;7.50;2.20;;;8.50;99.90;;;;;;5011944;28;20493;-47
2023/12/26 06:22:58;;;;;;;6.20;2.30;;;8.50;99.90;;;;;;5013220;28;20470;-50
2023/12/26 06:25:25;;;;;;;6.38;2.15;;;8.50;99.90;;;;;;5015303;28;20041;-55
2023/12/26 06:27:52;;;;;;;6.32;1.98;;;8.50;99.90;;;;;;5016387;28;20123;-58
2023/12/26 06:30:19;;;;;;;8.50;2.38;;;8.50;99.90;;;;;;5012398;28;20034;-57
2023/12/26 06:32:46;;;;;;;7.22;2.10;;;8.40;99.90;;;;;;5009791;28;20061;-54
2023/12/26 06:35:13;;;;;;;7.45;2.00;;;8.50;99.90;;;;;;5015163;28;20045;-50
2023/12/26 06:37:41;;;;;;;6.13;1.88;;;8.50;99.90;;;;;;5011839;28;20168;-53
2023/12/26 06:40:08;;;;;;;7.97;2.00;;;8.50;99.90;;;;;;5013991;28;20482;-50
2023/12/26 06:42:36;;;;;;;6.38;2.42;;;8.60;99.90;;;;;;5039441;28;20042;-55
2023/12/26 06:45:04;;;;;;;6.78;2.20;;;8.60;99.90;;;;;;5017301;28;20041;-54
2023/12/26 06:47:32;;;;;;;8.93;2.15;;;8.70;99.90;;;;;;5011961;28;20103;-51
2023/12/26 06:49:59;;;;;;;5.78;2.00;;;8.60;99.90;;;;;;5012131;28;20049;-46
2023/12/26 06:52:26;;;;;;;9.02;2.00;;;8.70;99.90;;;;;;5012740;28;20412;-52
2023/12/26 06:54:53;;;;;;;5.43;2.13;;;8.60;99.90;;;;;;5011747;28;20057;-54
2023/12/26 06:57:20;;;;;;;10.23;2.25;;;8.70;99.90;;;;;;5011119;28;20046;-48
2023/12/26 06:59:48;;;;;;;9.45;2.40;;;8.70;99.90;;;;;;5013756;28;20459;-51
2023/12/26 07:02:16;;;;;;;5.85;1.90;;;8.70;99.90;;;;;;5011738;28;20076;-53
2023/12/26 07:04:46;;;;;;;6.15;1.90;;;8.70;99.90;;;;;;5008825;28;20052;-48
2023/12/26 07:07:13;;;;;;;8.95;2.55;;;8.70;99.90;;;;;;5011277;28;20064;-48
2023/12/26 07:09:40;;;;;;;5.13;2.25;;;8.80;99.90;;;;;;5019897;28;21045;-53
2023/12/26 07:12:07;;;;;;;8.88;2.10;;;8.80;99.90;;;;;;5015764;28;20203;-48
2023/12/26 07:14:34;;;;;;;7.72;2.35;;;8.70;99.90;;;;;;5018018;28;20060;-55
2023/12/26 07:17:01;;;;;;;6.30;2.08;;;8.80;99.90;;;;;;5014667;28;20693;-55
2023/12/26 07:19:27;;;;;;;9.07;2.65;;;8.80;99.90;;;;;;5013017;28;20124;-54
2023/12/26 07:21:55;;;;;;;8.48;1.85;;;8.80;99.90;;;;;;5015945;28;20432;-51
2023/12/26 07:24:22;;;;;;;9.82;1.83;;;8.80;99.90;;;;;;5009787;28;20046;-52
2023/12/26 07:26:49;;;;;;;9.20;2.83;;;8.90;99.90;;;;;;5006125;28;20048;-53
2023/12/26 07:29:16;;;;;;;4.47;1.88;;;8.90;99.90;;;;;;5007759;28;20062;-49
2023/12/26 07:31:42;;;;;;;8.77;2.67;;;8.90;99.90;;;;;;5012617;28;20058;-51
2023/12/26 07:34:10;;;;;;;5.13;2.08;;;9.00;99.90;;;;;;5010902;28;20494;-59
2023/12/26 07:36:37;;;;;;;7.60;1.98;;;9.00;99.90;;;;;;5013861;28;20182;-54
2023/12/26 07:39:05;;;;;;;9.30;2.10;;;9.00;99.90;;;;;;5013025;28;20041;-49
2023/12/26 07:41:32;;;;;;;6.75;1.80;;;9.10;99.90;;;;;;5012546;28;20125;-47
2023/12/26 07:43:59;;;;;;;6.72;2.30;;;9.00;99.90;;;;;;5013450;28;20041;-50
2023/12/26 07:46:27;;;;;;;5.22;1.60;;;9.10;99.90;;;;;;5012870;28;20048;-59
2023/12/26 07:48:54;;;;;;;8.18;2.42;;;9.00;99.90;;;;;;5016957;28;20045;-52
2023/12/26 07:51:21;;;;;;;8.32;2.35;;;9.10;99.90;;;;;;5003909;28;20518;-51
2023/12/26 07:53:48;;;;;;;6.75;2.10;;;9.10;99.90;;;;;;5015240;28;20072;-51
2023/12/26 07:56:15;;;;;;;4.88;2.03;;;9.10;99.90;;;;;;5011326;28;20452;-48
2023/12/26 07:58:42;;;;;;;6.53;1.90;;;9.10;99.90;;;;;;5014968;28;20513;-50
2023/12/26 08:01:09;;;;;;;7.35;2.45;;;9.10;99.90;;;;;;5007640;28;20070;-48
2023/12/26 08:03:36;;;;;;;4.55;1.80;;;9.10;99.90;;;;;;5007063;28;20637;-48
2023/12/26 08:06:03;;;;;;;5.78;2.00;;;9.10;99.90;;;;;;5014475;28;20068;-55
2023/12/26 08:08:30;;;;;;;6.03;1.98;;;9.20;99.90;;;;;;5012769;28;20052;-51
2023/12/26 08:10:57;;;;;;;8.65;2.90;;;9.20;99.90;;;;;;5010588;28;20045;-52
2023/12/26 08:13:24;;;;;;;5.47;1.88;;;9.20;99.90;;;;;;5013503;28;20408;-53
2023/12/26 08:15:51;;;;;;;9.30;1.80;;;9.20;99.90;;;;;;5013980;28;20042;-49
2023/12/26 08:18:18;;;;;;;9.73;2.33;;;9.20;99.90;;;;;;5010826;28;20041;-53
2023/12/26 08:20:45;;;;;;;6.97;1.98;;;9.20;99.90;;;;;;5019443;28;20491;-53
2023/12/26 08:23:12;;;;;;;8.40;2.10;;;9.20;99.90;;;;;;5013675;28;20038;-49
2023/12/26 08:25:39;;;;;;;12.70;2.70;;;9.20;99.90;;;;;;5014520;28;20073;-51
2023/12/26 08:28:06;;;;;;;8.77;2.22;;;9.10;99.90;;;;;;5014119;28;20795;-49
2023/12/26 08:30:33;;;;;;;13.38;2.35;;;9.10;99.90;;;;;;5014447;28;20050;-53
2023/12/26 08:33:05;;;;;;;;;;;9.20;99.90;;;;;;5015635;28;20084;-54
2023/12/26 08:35:32;;;;;;;9.00;2.13;;;9.10;99.90;;;;;;5014136;28;19944;-52
2023/12/26 08:38:00;;;;;;;6.25;2.08;;;9.10;99.90;;;;;;5014505;28;20116;-51
2023/12/26 08:40:27;;;;;;;7.63;2.00;;;9.10;99.90;;;;;;5010026;28;20237;-50
2023/12/26 08:42:54;;;;;;;6.95;1.90;;;9.10;99.90;;;;;;5007110;28;20042;-52
2023/12/26 08:45:21;;;;;;;7.05;1.92;;;9.10;99.90;;;;;;5012582;28;20034;-53
2023/12/26 08:47:49;;;;;;;11.05;2.60;;;9.00;99.90;;;;;;5007009;28;20053;-46
2023/12/26 08:50:16;;;;;;;7.45;2.53;;;9.00;99.90;;;;;;5008374;28;20099;-53
2023/12/26 08:52:44;;;;;;;7.82;1.90;;;9.00;99.90;;;;;;5012078;28;20053;-57
2023/12/26 08:55:11;;;;;;;7.47;2.25;;;9.00;99.90;;;;;;5005725;28;20638;-52
2023/12/26 08:57:38;;;;;;;8.50;2.33;;;9.00;99.90;;;;;;5014188;28;20129;-52
2023/12/26 09:00:05;;;;;;;6.85;1.88;;;8.90;99.90;;;;;;5010657;28;20037;-51
2023/12/26 09:02:32;;;;;;;8.07;2.10;;;9.00;99.90;;;;;;5006949;28;20046;-52
2023/12/26 09:04:59;;;;;;;6.22;1.85;;;8.90;99.90;;;;;;5007841;28;20077;-47
2023/12/26 09:07:26;;;;;;;9.02;2.30;;;8.90;99.90;;;;;;5009661;28;20042;-56
2023/12/26 09:09:53;;;;;;;13.52;2.92;;;9.00;99.90;;;;;;5014468;28;20047;-53
2023/12/26 09:12:21;;;;;;;13.30;2.55;;;9.00;99.90;;;;;;5009448;28;20427;-55
2023/12/26 09:14:48;;;;;;;9.43;2.55;;;9.00;99.90;;;;;;5016126;28;20533;-52
2023/12/26 09:17:15;;;;;;;11.23;2.58;;;9.00;99.90;;;;;;5013505;28;20045;-54
2023/12/26 09:19:42;;;;;;;8.18;2.00;;;9.10;99.90;;;;;;5006815;28;20595;-51
2023/12/26 09:22:09;;;;;;;8.57;2.47;;;9.20;99.90;;;;;;5007709;28;20092;-49
2023/12/26 09:24:36;;;;;;;8.15;1.95;;;9.20;99.90;;;;;;5014109;28;20045;-50
2023/12/26 09:27:04;;;;;;;8.30;2.47;;;9.20;99.90;;;;;;5006976;28;20464;-46
2023/12/26 09:29:33;;;;;;;9.77;2.30;;;9.20;99.90;;;;;;5006090;28;20054;-49
2023/12/26 09:32:00;;;;;;;6.22;2.47;;;9.10;99.90;;;;;;5011645;28;20042;-53
2023/12/26 09:34:27;;;;;;;11.73;2.55;;;9.20;99.90;;;;;;5012235;28;20061;-54
2023/12/26 09:36:54;;;;;;;5.72;2.00;;;9.20;99.90;;;;;;5015766;28;20060;-50
2023/12/26 09:39:21;;;;;;;11.05;2.20;;;9.20;99.90;;;;;;5009369;28;20069;-51
2023/12/26 09:41:55;;;;;;;6.97;2.08;;;9.20;99.90;;;;;;5011147;28;20042;-48
2023/12/26 09:44:22;;;;;;;5.80;1.85;;;9.20;99.90;;;;;;5002785;28;20455;-46
2023/12/26 09:46:51;;;;;;;8.30;2.00;;;9.20;99.90;;;;;;5004711;28;20050;-54
2023/12/26 09:49:18;;;;;;;10.43;2.25;;;9.20;99.90;;;;;;5008963;28;20416;-53
2023/12/26 09:51:46;;;;;;;6.97;2.20;;;9.30;99.90;;;;;;5009620;28;20118;-56
2023/12/26 09:54:14;;;;;;;7.65;2.60;;;9.20;99.90;;;;;;5008006;28;20037;-49
2023/12/26 09:56:45;;;;;;;10.15;2.80;;;9.30;99.90;;;;;;5012478;28;20123;-51
2023/12/26 09:59:13;;;;;;;6.63;2.10;;;9.30;99.90;;;;;;5016160;28;20052;-50
2023/12/26 10:01:42;;;;;;;6.35;2.13;;;9.30;99.90;;;;;;5013591;28;20128;-55
2023/12/26 10:04:09;;;;;;;11.40;2.20;;;9.40;99.90;;;;;;5013795;28;20038;-53
2023/12/26 10:06:36;;;;;;;8.30;2.28;;;9.30;99.90;;;;;;5011904;28;20052;-55
2023/12/26 10:09:04;;;;;;;11.50;2.85;;;9.40;99.90;;;;;;5007398;28;20100;-56
2023/12/26 10:11:32;;;;;;;8.45;2.40;;;9.40;99.90;;;;;;5012334;28;20046;-55
2023/12/26 10:13:59;;;;;;;11.82;2.50;;;9.50;99.90;;;;;;5011882;28;20051;-56
2023/12/26 10:16:26;;;;;;;6.75;2.25;;;9.40;99.90;;;;;;5013343;28;20388;-49
2023/12/26 10:18:53;;;;;;;5.40;2.00;;;9.40;99.90;;;;;;5011190;28;20037;-52
2023/12/26 10:21:21;;;;;;;8.05;2.10;;;9.50;99.90;;;;;;5009393;28;20049;-49
2023/12/26 10:23:49;;;;;;;6.93;2.00;;;9.40;99.90;;;;;;5011425;28;20517;-54
2023/12/26 10:26:16;;;;;;;8.32;2.40;;;9.50;99.90;;;;;;5010622;28;20054;-52
2023/12/26 10:28:44;;;;;;;9.93;2.20;;;9.50;99.90;;;;;;5010376;28;20042;-55
2023/12/26 10:31:17;;;;;;;10.23;2.30;;;9.50;99.90;;;;;;5009596;28;20049;-56
2023/12/26 10:33:45;;;;;;;6.65;2.10;;;9.40;99.90;;;;;;5012336;28;20107;-54
2023/12/26 10:36:12;;;;;;;6.80;2.10;;;9.50;99.90;;;;;;5005562;28;20504;-53
2023/12/26 10:38:39;;;;;;;4.82;2.30;;;9.50;99.90;;;;;;5012875;28;20049;-55
2023/12/26 10:41:10;;;;;;;4.57;2.10;;;9.50;99.90;;;;;;5010497;28;20041;-57
2023/12/26 10:43:40;;;;;;;7.65;2.63;;;9.50;99.90;;;;;;5017830;28;20045;-56
2023/12/26 10:46:08;;;;;;;6.97;2.13;;;9.50;99.90;;;;;;5008777;28;20046;-53
2023/12/26 10:48:36;;;;;;;7.60;2.42;;;9.60;99.90;;;;;;5019179;28;20099;-53
2023/12/26 10:51:06;;;;;;;7.35;2.17;;;9.70;99.90;;;;;;5007488;28;20169;-47
2023/12/26 10:53:43;;;;;;;5.45;2.13;;;9.80;99.90;;;;;;5012199;28;20077;-51
2023/12/26 10:56:12;;;;;;;7.55;2.00;;;9.80;99.90;;;;;;5009067;28;20049;-53
2023/12/26 10:58:40;;;;;;;9.25;2.25;;;9.80;99.90;;;;;;5006734;28;20053;-51
2023/12/26 11:01:08;;;;;;;6.85;2.17;;;9.80;99.90;;;;;;5012174;28;20065;-56
2023/12/26 11:03:36;;;;;;;5.43;2.10;;;9.70;99.90;;;;;;5010420;28;20068;-50
2023/12/26 11:06:03;;;;;;;9.65;2.42;;;9.70;99.90;;;;;;5010620;28;20153;-49
2023/12/26 11:08:31;;;;;;;7.68;2.70;;;9.60;99.90;;;;;;5005692;28;20133;-49
2023/12/26 11:10:58;;;;;;;6.47;2.40;;;9.70;99.90;;;;;;5014234;28;20312;-49
2023/12/26 11:13:24;;;;;;;5.22;2.20;;;9.60;99.90;;;;;;5014844;28;20041;-52
2023/12/26 11:15:54;;;;;;;9.60;2.47;;;9.60;99.90;;;;;;5013441;28;20073;-54
2023/12/26 11:18:21;;;;;;;6.15;2.95;;;9.60;99.90;;;;;;5002259;28;20521;-55
2023/12/26 11:20:49;;;;;;;7.35;2.25;;;9.60;99.90;;;;;;5011121;28;20042;-56
2023/12/26 11:23:16;;;;;;;9.38;2.53;;;9.60;99.90;;;;;;5011262;28;20081;-55
2023/12/26 11:25:43;;;;;;;5.40;1.83;;;9.60;99.90;;;;;;5012751;28;20451;-50
2023/12/26 11:28:10;;;;;;;6.45;2.05;;;9.60;99.90;;;;;;5012343;28;20057;-56
2023/12/26 11:30:37;;;;;;;6.78;2.22;;;9.70;99.90;;;;;;5010567;28;20133;-58
2023/12/26 11:33:04;;;;;;;10.15;2.40;;;9.70;99.90;;;;;;5010058;28;20067;-49
2023/12/26 11:35:32;;;;;;;9.77;2.20;;;9.70;99.90;;;;;;5008560;28;20046;-53
2023/12/26 11:37:59;;;;;;;4.78;1.90;;;9.70;99.90;;;;;;5006889;28;20486;-49
2023/12/26 11:40:26;;;;;;;6.85;1.90;;;9.60;99.90;;;;;;5010732;28;20116;-50
2023/12/26 11:42:53;;;;;;;7.95;1.98;;;9.60;99.90;;;;;;5009844;28;20060;-54
2023/12/26 11:45:20;;;;;;;6.07;2.92;;;9.60;99.90;;;;;;5011273;28;20042;-55
2023/12/26 11:47:47;;;;;;;6.20;2.47;;;9.60;99.90;;;;;;5013152;28;20115;-53
2023/12/26 11:50:14;;;;;;;6.47;1.90;;;9.60;99.90;;;;;;5011863;28;20522;-54
2023/12/26 11:52:42;;;;;;;9.95;2.05;;;9.60;99.90;;;;;;5006804;28;20147;-51
2023/12/26 11:55:08;;;;;;;9.48;2.40;;;9.60;99.90;;;;;;5009240;28;20050;-55
2023/12/26 11:57:35;;;;;;;7.15;2.17;;;9.70;99.90;;;;;;5011772;28;20050;-54
2023/12/26 12:00:02;;;;;;;6.47;2.10;;;9.70;99.90;;;;;;5007159;28;20041;-50
2023/12/26 12:02:30;;;;;;;6.30;2.40;;;9.70;99.90;;;;;;5016382;28;20045;-53
2023/12/26 12:05:03;;;;;;;7.10;1.88;;;9.70;99.90;;;;;;5009311;28;20543;-49
2023/12/26 12:07:31;;;;;;;7.32;2.20;;;9.70;99.90;;;;;;5009973;28;20038;-54
2023/12/26 12:10:16;;;;;;;6.97;2.17;;;9.60;99.90;;;;;;5006750;28;20073;-51
2023/12/26 12:12:43;;;;;;;6.10;2.30;;;9.60;99.90;;;;;;5003781;28;20045;-50
2023/12/26 12:15:10;;;;;;;7.30;2.10;;;9.60;99.90;;;;;;5008376;28;20271;-52
2023/12/26 12:17:45;;;;;;;9.90;1.98;;;9.50;99.90;;;;;;5007512;28;20539;-46
2023/12/26 12:20:17;;;;;;;7.43;2.22;;;9.40;99.90;;;;;;5008491;28;20044;-49
2023/12/26 12:22:45;;;;;;;7.85;2.20;;;9.40;99.90;;;;;;5009394;28;20197;-52
2023/12/26 12:25:16;;;;;;;6.35;2.05;;;9.40;99.90;;;;;;5007854;28;20127;-54
2023/12/26 12:28:09;;;;;;;8.57;1.95;;;9.40;99.90;;;;;;5007483;28;20425;-52
2023/12/26 12:30:36;;;;;;;8.10;2.08;;;9.40;99.90;;;;;;5009649;28;20102;-56
2023/12/26 12:33:19;;;;;;;6.32;2.03;;;9.30;99.90;;;;;;5010307;28;20160;-52
2023/12/26 12:35:47;;;;;;;4.90;2.00;;;9.30;99.90;;;;;;5006744;28;20050;-49
2023/12/26 12:38:17;;;;;;;7.88;2.20;;;9.30;99.90;;;;;;5006011;28;20045;-49
2023/12/26 12:40:46;;;;;;;8.27;2.08;;;9.40;99.90;;;;;;5013407;28;20158;-50
2023/12/26 12:43:13;;;;;;;8.25;2.55;;;9.40;99.90;;;;;;5010021;28;20049;-52
2023/12/26 12:45:40;;;;;;;5.00;1.95;;;9.50;99.90;;;;;;5012986;28;20061;-53
2023/12/26 12:48:08;;;;;;;9.05;1.92;;;9.50;99.90;;;;;;5009464;28;20140;-58
2023/12/26 12:50:35;;;;;;;6.85;1.75;;;9.50;99.90;;;;;;5009382;28;20140;-55
2023/12/26 12:53:04;;;;;;;6.22;1.60;;;9.40;99.90;;;;;;5007575;28;20144;-51
2023/12/26 12:55:31;;;;;;;9.98;2.47;;;9.40;99.90;;;;;;5008007;28;20132;-49
2023/12/26 12:57:57;;;;;;;5.32;1.70;;;9.40;99.90;;;;;;5009452;28;20473;-50
2023/12/26 13:00:24;;;;;;;7.18;1.90;;;9.40;99.90;;;;;;5008415;28;20050;-49
2023/12/26 13:02:51;;;;;;;6.10;2.15;;;9.40;99.90;;;;;;5014033;28;20049;-48